sensor_id;sensor_type;location;lat;lon;timestamp;P1;durP1;ratioP1;P2;durP2;ratioP2
2119;SDS011;1066;52.540;13.420;2024-03-25T00:01:59;3.10;;;2.80;;
2119;SDS011;1066;52.540;13.420;2024-03-25T00:04:24;5.43;;;3.80;;
2119;SDS011;1066;52.540;13.420;2024-03-25T00:06:50;4.60;;;4.20;;
2119;SDS011;1066;52.540;13.420;2024-03-25T00:09:16;3.70;;;3.23;;
2119;SDS011;1066;52.540;13.420;2024-03-25T00:11:42;4.07;;;3.70;;
2119;SDS011;1066;52.540;13.420;2024-03-25T00:14:07;4.40;;;3.73;;
2119;SDS011;1066;52.540;13.420;2024-03-25T00:16:33;3.90;;;3.20;;
2119;SDS011;1066;52.540;13.420;2024-03-25T00:18:58;3.80;;;3.23;;
2119;SDS011;1066;52.540;13.420;2024-03-25T00:21:24;3.60;;;3.17;;
2119;SDS011;1066;52.540;13.420;2024-03-25T00:23:49;3.47;;;3.03;;
2119;SDS011;1066;52.540;13.420;2024-03-25T00:26:14;3.77;;;3.47;;
2119;SDS011;1066;52.540;13.420;2024-03-25T00:28:40;3.60;;;3.20;;
2119;SDS011;1066;52.540;13.420;2024-03-25T00:31:07;3.90;;;3.60;;
2119;SDS011;1066;52.540;13.420;2024-03-25T00:33:33;3.47;;;3.17;;
2119;SDS011;1066;52.540;13.420;2024-03-25T00:35:58;3.70;;;3.40;;
2119;SDS011;1066;52.540;13.420;2024-03-25T00:38:24;4.20;;;3.60;;
2119;SDS011;1066;52.540;13.420;2024-03-25T00:40:50;3.70;;;3.23;;
2119;SDS011;1066;52.540;13.420;2024-03-25T00:43:15;3.80;;;3.40;;
2119;SDS011;1066;52.540;13.420;2024-03-25T00:45:41;3.60;;;3.30;;
2119;SDS011;1066;52.540;13.420;2024-03-25T00:48:06;4.37;;;3.97;;
2119;SDS011;1066;52.540;13.420;2024-03-25T00:50:32;3.50;;;3.20;;
2119;SDS011;1066;52.540;13.420;2024-03-25T00:52:57;4.20;;;3.80;;
2119;SDS011;1066;52.540;13.420;2024-03-25T00:55:23;3.50;;;3.03;;
2119;SDS011;1066;52.540;13.420;2024-03-25T00:57:48;4.33;;;3.70;;
2119;SDS011;1066;52.540;13.420;2024-03-25T01:00:14;3.53;;;3.23;;
2119;SDS011;1066;52.540;13.420;2024-03-25T01:02:40;3.67;;;3.37;;
2119;SDS011;1066;52.540;13.420;2024-03-25T01:05:06;4.10;;;3.70;;
2119;SDS011;1066;52.540;13.420;2024-03-25T01:07:32;3.50;;;3.20;;
2119;SDS011;1066;52.540;13.420;2024-03-25T01:09:58;4.50;;;3.80;;
2119;SDS011;1066;52.540;13.420;2024-03-25T01:12:24;4.80;;;4.30;;
2119;SDS011;1066;52.540;13.420;2024-03-25T01:14:50;4.00;;;3.60;;
2119;SDS011;1066;52.540;13.420;2024-03-25T01:17:16;5.93;;;4.30;;
2119;SDS011;1066;52.540;13.420;2024-03-25T01:19:42;6.03;;;4.30;;
2119;SDS011;1066;52.540;13.420;2024-03-25T01:22:08;5.83;;;4.20;;
2119;SDS011;1066;52.540;13.420;2024-03-25T01:24:34;5.00;;;4.50;;
2119;SDS011;1066;52.540;13.420;2024-03-25T01:26:59;5.47;;;4.30;;
2119;SDS011;1066;52.540;13.420;2024-03-25T01:29:25;5.40;;;4.90;;
2119;SDS011;1066;52.540;13.420;2024-03-25T01:31:50;5.90;;;4.47;;
2119;SDS011;1066;52.540;13.420;2024-03-25T01:34:16;4.60;;;4.17;;
2119;SDS011;1066;52.540;13.420;2024-03-25T01:36:41;4.63;;;4.23;;
2119;SDS011;1066;52.540;13.420;2024-03-25T01:39:07;5.13;;;4.63;;
2119;SDS011;1066;52.540;13.420;2024-03-25T01:41:33;5.03;;;4.53;;
2119;SDS011;1066;52.540;13.420;2024-03-25T01:43:58;5.23;;;4.53;;
2119;SDS011;1066;52.540;13.420;2024-03-25T01:46:24;6.77;;;5.00;;
2119;SDS011;1066;52.540;13.420;2024-03-25T01:48:49;6.30;;;5.30;;
2119;SDS011;1066;52.540;13.420;2024-03-25T01:51:17;5.27;;;4.70;;
2119;SDS011;1066;52.540;13.420;2024-03-25T01:53:44;5.03;;;4.63;;
2119;SDS011;1066;52.540;13.420;2024-03-25T01:56:10;5.80;;;4.80;;
2119;SDS011;1066;52.540;13.420;2024-03-25T01:58:36;4.97;;;4.47;;
2119;SDS011;1066;52.540;13.420;2024-03-25T02:01:05;7.00;;;4.70;;
2119;SDS011;1066;52.540;13.420;2024-03-25T02:03:31;5.57;;;5.00;;
2119;SDS011;1066;52.540;13.420;2024-03-25T02:06:00;4.60;;;4.07;;
2119;SDS011;1066;52.540;13.420;2024-03-25T02:08:27;3.23;;;2.93;;
2119;SDS011;1066;52.540;13.420;2024-03-25T02:10:54;3.10;;;2.80;;
2119;SDS011;1066;52.540;13.420;2024-03-25T02:13:20;3.53;;;2.27;;
2119;SDS011;1066;52.540;13.420;2024-03-25T02:15:46;3.37;;;2.40;;
2119;SDS011;1066;52.540;13.420;2024-03-25T02:18:14;2.60;;;2.40;;
2119;SDS011;1066;52.540;13.420;2024-03-25T02:20:41;2.70;;;2.50;;
2119;SDS011;1066;52.540;13.420;2024-03-25T02:23:06;2.80;;;2.20;;
2119;SDS011;1066;52.540;13.420;2024-03-25T02:25:35;2.93;;;2.10;;
2119;SDS011;1066;52.540;13.420;2024-03-25T02:28:00;2.43;;;2.23;;
2119;SDS011;1066;52.540;13.420;2024-03-25T02:30:28;2.90;;;2.37;;
2119;SDS011;1066;52.540;13.420;2024-03-25T02:32:53;2.60;;;2.20;;
2119;SDS011;1066;52.540;13.420;2024-03-25T02:35:19;2.40;;;1.90;;
2119;SDS011;1066;52.540;13.420;2024-03-25T02:37:44;3.43;;;2.30;;
2119;SDS011;1066;52.540;13.420;2024-03-25T02:40:09;3.43;;;2.30;;
2119;SDS011;1066;52.540;13.420;2024-03-25T02:42:36;3.53;;;2.47;;
2119;SDS011;1066;52.540;13.420;2024-03-25T02:45:02;2.83;;;2.60;;
2119;SDS011;1066;52.540;13.420;2024-03-25T02:47:28;1.90;;;1.63;;
2119;SDS011;1066;52.540;13.420;2024-03-25T02:49:53;2.37;;;1.80;;
2119;SDS011;1066;52.540;13.420;2024-03-25T02:52:19;2.73;;;2.40;;
2119;SDS011;1066;52.540;13.420;2024-03-25T02:54:44;1.57;;;1.37;;
2119;SDS011;1066;52.540;13.420;2024-03-25T02:57:10;2.13;;;1.93;;
2119;SDS011;1066;52.540;13.420;2024-03-25T02:59:35;2.20;;;2.00;;
2119;SDS011;1066;52.540;13.420;2024-03-25T03:02:00;3.60;;;2.50;;
2119;SDS011;1066;52.540;13.420;2024-03-25T03:04:26;2.90;;;2.23;;
2119;SDS011;1066;52.540;13.420;2024-03-25T03:06:51;3.27;;;2.00;;
2119;SDS011;1066;52.540;13.420;2024-03-25T03:09:16;2.13;;;1.93;;
2119;SDS011;1066;52.540;13.420;2024-03-25T03:11:42;2.37;;;2.00;;
2119;SDS011;1066;52.540;13.420;2024-03-25T03:14:07;3.40;;;2.73;;
2119;SDS011;1066;52.540;13.420;2024-03-25T03:16:32;3.50;;;2.60;;
2119;SDS011;1066;52.540;13.420;2024-03-25T03:18:58;3.77;;;3.07;;
2119;SDS011;1066;52.540;13.420;2024-03-25T03:21:23;9.00;;;2.90;;
2119;SDS011;1066;52.540;13.420;2024-03-25T03:23:49;3.67;;;2.50;;
2119;SDS011;1066;52.540;13.420;2024-03-25T03:26:14;3.90;;;2.53;;
2119;SDS011;1066;52.540;13.420;2024-03-25T03:28:40;4.00;;;2.90;;
2119;SDS011;1066;52.540;13.420;2024-03-25T03:31:06;4.30;;;3.60;;
2119;SDS011;1066;52.540;13.420;2024-03-25T03:33:31;4.50;;;3.17;;
2119;SDS011;1066;52.540;13.420;2024-03-25T03:35:57;5.17;;;3.30;;
2119;SDS011;1066;52.540;13.420;2024-03-25T03:38:22;4.73;;;4.27;;
2119;SDS011;1066;52.540;13.420;2024-03-25T03:43:26;6.63;;;4.63;;
2119;SDS011;1066;52.540;13.420;2024-03-25T03:45:51;4.43;;;4.03;;
2119;SDS011;1066;52.540;13.420;2024-03-25T03:48:18;4.17;;;3.77;;
2119;SDS011;1066;52.540;13.420;2024-03-25T03:50:43;4.63;;;3.40;;
2119;SDS011;1066;52.540;13.420;2024-03-25T03:53:09;4.07;;;3.10;;
2119;SDS011;1066;52.540;13.420;2024-03-25T03:55:35;5.00;;;3.20;;
2119;SDS011;1066;52.540;13.420;2024-03-25T03:58:00;5.03;;;3.50;;
2119;SDS011;1066;52.540;13.420;2024-03-25T04:00:26;5.30;;;3.53;;
2119;SDS011;1066;52.540;13.420;2024-03-25T04:02:51;3.50;;;3.17;;
2119;SDS011;1066;52.540;13.420;2024-03-25T04:05:17;5.47;;;3.70;;
2119;SDS011;1066;52.540;13.420;2024-03-25T04:07:42;4.00;;;3.27;;
2119;SDS011;1066;52.540;13.420;2024-03-25T04:10:08;5.57;;;3.10;;
2119;SDS011;1066;52.540;13.420;2024-03-25T04:12:34;3.73;;;2.93;;
2119;SDS011;1066;52.540;13.420;2024-03-25T04:15:00;3.20;;;2.90;;
2119;SDS011;1066;52.540;13.420;2024-03-25T04:17:26;3.17;;;2.73;;
2119;SDS011;1066;52.540;13.420;2024-03-25T04:19:51;7.53;;;2.83;;
2119;SDS011;1066;52.540;13.420;2024-03-25T04:22:16;4.73;;;2.77;;
2119;SDS011;1066;52.540;13.420;2024-03-25T04:24:42;2.77;;;2.57;;
2119;SDS011;1066;52.540;13.420;2024-03-25T04:27:08;3.43;;;2.57;;
2119;SDS011;1066;52.540;13.420;2024-03-25T04:29:34;10.50;;;6.70;;
2119;SDS011;1066;52.540;13.420;2024-03-25T04:31:59;4.33;;;3.63;;
2119;SDS011;1066;52.540;13.420;2024-03-25T04:34:25;4.90;;;4.40;;
2119;SDS011;1066;52.540;13.420;2024-03-25T04:36:50;5.60;;;4.30;;
2119;SDS011;1066;52.540;13.420;2024-03-25T04:39:15;2.40;;;2.00;;
2119;SDS011;1066;52.540;13.420;2024-03-25T04:41:41;2.87;;;2.50;;
2119;SDS011;1066;52.540;13.420;2024-03-25T04:44:06;3.80;;;2.67;;
2119;SDS011;1066;52.540;13.420;2024-03-25T04:46:34;5.23;;;3.27;;
2119;SDS011;1066;52.540;13.420;2024-03-25T04:48:59;3.50;;;2.57;;
2119;SDS011;1066;52.540;13.420;2024-03-25T04:51:25;4.10;;;2.90;;
2119;SDS011;1066;52.540;13.420;2024-03-25T04:53:53;2.93;;;2.60;;
2119;SDS011;1066;52.540;13.420;2024-03-25T04:56:18;2.80;;;2.57;;
2119;SDS011;1066;52.540;13.420;2024-03-25T04:58:44;3.90;;;3.20;;
2119;SDS011;1066;52.540;13.420;2024-03-25T05:01:09;5.70;;;3.80;;
2119;SDS011;1066;52.540;13.420;2024-03-25T05:03:34;5.03;;;4.07;;
2119;SDS011;1066;52.540;13.420;2024-03-25T05:06:00;4.60;;;3.70;;
2119;SDS011;1066;52.540;13.420;2024-03-25T05:08:25;7.33;;;3.40;;
2119;SDS011;1066;52.540;13.420;2024-03-25T05:10:50;4.37;;;3.37;;
2119;SDS011;1066;52.540;13.420;2024-03-25T05:13:15;4.80;;;4.03;;
2119;SDS011;1066;52.540;13.420;2024-03-25T05:15:41;6.13;;;3.37;;
2119;SDS011;1066;52.540;13.420;2024-03-25T05:18:14;4.50;;;3.40;;
2119;SDS011;1066;52.540;13.420;2024-03-25T05:20:40;4.87;;;4.37;;
2119;SDS011;1066;52.540;13.420;2024-03-25T05:23:08;5.10;;;4.23;;
2119;SDS011;1066;52.540;13.420;2024-03-25T05:25:34;5.33;;;4.20;;
2119;SDS011;1066;52.540;13.420;2024-03-25T05:28:01;4.70;;;3.27;;
2119;SDS011;1066;52.540;13.420;2024-03-25T05:30:28;4.80;;;3.70;;
2119;SDS011;1066;52.540;13.420;2024-03-25T05:32:53;6.67;;;3.90;;
2119;SDS011;1066;52.540;13.420;2024-03-25T05:35:18;4.10;;;3.20;;
2119;SDS011;1066;52.540;13.420;2024-03-25T05:37:44;4.20;;;2.80;;
2119;SDS011;1066;52.540;13.420;2024-03-25T05:40:09;5.80;;;2.80;;
2119;SDS011;1066;52.540;13.420;2024-03-25T05:42:36;3.50;;;3.20;;
2119;SDS011;1066;52.540;13.420;2024-03-25T05:45:02;4.30;;;3.07;;
2119;SDS011;1066;52.540;13.420;2024-03-25T05:47:28;9.37;;;3.40;;
2119;SDS011;1066;52.540;13.420;2024-03-25T05:49:53;4.50;;;3.50;;
2119;SDS011;1066;52.540;13.420;2024-03-25T05:52:18;4.03;;;3.60;;
2119;SDS011;1066;52.540;13.420;2024-03-25T05:54:44;8.07;;;4.10;;
2119;SDS011;1066;52.540;13.420;2024-03-25T05:57:09;8.00;;;4.53;;
2119;SDS011;1066;52.540;13.420;2024-03-25T05:59:34;4.80;;;4.30;;
2119;SDS011;1066;52.540;13.420;2024-03-25T06:02:00;7.57;;;4.20;;
2119;SDS011;1066;52.540;13.420;2024-03-25T06:04:25;4.90;;;4.30;;
2119;SDS011;1066;52.540;13.420;2024-03-25T06:06:50;6.47;;;4.17;;
2119;SDS011;1066;52.540;13.420;2024-03-25T06:09:15;6.80;;;4.60;;
2119;SDS011;1066;52.540;13.420;2024-03-25T06:11:41;6.53;;;3.67;;
2119;SDS011;1066;52.540;13.420;2024-03-25T06:14:09;7.13;;;4.00;;
2119;SDS011;1066;52.540;13.420;2024-03-25T06:16:34;5.10;;;3.90;;
2119;SDS011;1066;52.540;13.420;2024-03-25T06:19:00;10.73;;;5.37;;
2119;SDS011;1066;52.540;13.420;2024-03-25T06:21:25;4.30;;;3.67;;
2119;SDS011;1066;52.540;13.420;2024-03-25T06:23:50;4.20;;;3.80;;
2119;SDS011;1066;52.540;13.420;2024-03-25T06:26:16;7.00;;;4.53;;
2119;SDS011;1066;52.540;13.420;2024-03-25T06:28:45;8.97;;;4.00;;
2119;SDS011;1066;52.540;13.420;2024-03-25T06:31:10;5.53;;;4.30;;
2119;SDS011;1066;52.540;13.420;2024-03-25T06:33:54;6.90;;;4.20;;
2119;SDS011;1066;52.540;13.420;2024-03-25T06:36:38;4.23;;;3.53;;
2119;SDS011;1066;52.540;13.420;2024-03-25T06:39:04;8.23;;;3.83;;
2119;SDS011;1066;52.540;13.420;2024-03-25T06:41:29;5.47;;;4.10;;
2119;SDS011;1066;52.540;13.420;2024-03-25T06:43:54;5.90;;;4.10;;
2119;SDS011;1066;52.540;13.420;2024-03-25T06:46:20;7.03;;;5.10;;
2119;SDS011;1066;52.540;13.420;2024-03-25T06:48:45;4.97;;;4.47;;
2119;SDS011;1066;52.540;13.420;2024-03-25T06:51:11;5.37;;;4.60;;
2119;SDS011;1066;52.540;13.420;2024-03-25T06:53:36;6.80;;;4.73;;
2119;SDS011;1066;52.540;13.420;2024-03-25T06:56:01;11.23;;;5.57;;
2119;SDS011;1066;52.540;13.420;2024-03-25T06:58:27;5.10;;;3.60;;
2119;SDS011;1066;52.540;13.420;2024-03-25T07:00:53;6.67;;;3.93;;
2119;SDS011;1066;52.540;13.420;2024-03-25T07:03:19;6.00;;;3.77;;
2119;SDS011;1066;52.540;13.420;2024-03-25T07:05:46;6.33;;;4.43;;
2119;SDS011;1066;52.540;13.420;2024-03-25T07:08:12;4.57;;;3.57;;
2119;SDS011;1066;52.540;13.420;2024-03-25T07:10:38;4.30;;;3.90;;
2119;SDS011;1066;52.540;13.420;2024-03-25T07:13:03;4.73;;;3.93;;
2119;SDS011;1066;52.540;13.420;2024-03-25T07:15:30;4.00;;;3.37;;
2119;SDS011;1066;52.540;13.420;2024-03-25T07:17:57;10.47;;;4.67;;
2119;SDS011;1066;52.540;13.420;2024-03-25T07:20:23;4.90;;;3.40;;
2119;SDS011;1066;52.540;13.420;2024-03-25T07:22:48;4.67;;;3.37;;
2119;SDS011;1066;52.540;13.420;2024-03-25T07:25:14;7.73;;;4.27;;
2119;SDS011;1066;52.540;13.420;2024-03-25T07:27:39;10.30;;;4.43;;
2119;SDS011;1066;52.540;13.420;2024-03-25T07:30:05;5.80;;;4.57;;
2119;SDS011;1066;52.540;13.420;2024-03-25T07:32:31;5.30;;;2.97;;
2119;SDS011;1066;52.540;13.420;2024-03-25T07:34:57;3.53;;;3.23;;
2119;SDS011;1066;52.540;13.420;2024-03-25T07:37:22;3.40;;;3.10;;
2119;SDS011;1066;52.540;13.420;2024-03-25T07:39:48;4.27;;;2.80;;
2119;SDS011;1066;52.540;13.420;2024-03-25T07:42:13;5.87;;;3.57;;
2119;SDS011;1066;52.540;13.420;2024-03-25T07:44:39;3.47;;;3.10;;
2119;SDS011;1066;52.540;13.420;2024-03-25T07:47:04;4.63;;;2.73;;
2119;SDS011;1066;52.540;13.420;2024-03-25T07:49:31;4.60;;;3.37;;
2119;SDS011;1066;52.540;13.420;2024-03-25T07:51:56;4.23;;;2.77;;
2119;SDS011;1066;52.540;13.420;2024-03-25T07:54:22;4.83;;;3.50;;
2119;SDS011;1066;52.540;13.420;2024-03-25T07:56:47;3.97;;;2.93;;
2119;SDS011;1066;52.540;13.420;2024-03-25T07:59:12;5.83;;;3.20;;
2119;SDS011;1066;52.540;13.420;2024-03-25T08:01:38;3.73;;;3.43;;
2119;SDS011;1066;52.540;13.420;2024-03-25T08:04:03;3.50;;;2.90;;
2119;SDS011;1066;52.540;13.420;2024-03-25T08:06:28;4.80;;;3.10;;
2119;SDS011;1066;52.540;13.420;2024-03-25T08:08:54;3.77;;;3.30;;
2119;SDS011;1066;52.540;13.420;2024-03-25T08:11:19;3.97;;;2.97;;
2119;SDS011;1066;52.540;13.420;2024-03-25T08:13:45;6.40;;;3.40;;
2119;SDS011;1066;52.540;13.420;2024-03-25T08:16:11;4.87;;;3.10;;
2119;SDS011;1066;52.540;13.420;2024-03-25T08:18:36;5.40;;;3.03;;
2119;SDS011;1066;52.540;13.420;2024-03-25T08:21:01;4.73;;;2.77;;
2119;SDS011;1066;52.540;13.420;2024-03-25T08:23:28;3.93;;;3.53;;
2119;SDS011;1066;52.540;13.420;2024-03-25T08:25:54;4.00;;;3.37;;
2119;SDS011;1066;52.540;13.420;2024-03-25T08:28:19;5.20;;;3.60;;
2119;SDS011;1066;52.540;13.420;2024-03-25T08:30:45;5.60;;;4.70;;
2119;SDS011;1066;52.540;13.420;2024-03-25T08:33:10;10.03;;;5.33;;
2119;SDS011;1066;52.540;13.420;2024-03-25T08:35:35;6.37;;;4.23;;
2119;SDS011;1066;52.540;13.420;2024-03-25T08:38:01;4.20;;;3.80;;
2119;SDS011;1066;52.540;13.420;2024-03-25T08:40:27;6.83;;;4.23;;
2119;SDS011;1066;52.540;13.420;2024-03-25T08:42:52;4.40;;;4.00;;
2119;SDS011;1066;52.540;13.420;2024-03-25T08:45:18;4.60;;;3.30;;
2119;SDS011;1066;52.540;13.420;2024-03-25T08:47:46;6.10;;;4.37;;
2119;SDS011;1066;52.540;13.420;2024-03-25T08:50:11;6.30;;;4.13;;
2119;SDS011;1066;52.540;13.420;2024-03-25T08:52:36;5.07;;;3.67;;
2119;SDS011;1066;52.540;13.420;2024-03-25T08:55:05;5.50;;;4.17;;
2119;SDS011;1066;52.540;13.420;2024-03-25T08:57:31;7.60;;;3.27;;
2119;SDS011;1066;52.540;13.420;2024-03-25T08:59:56;10.70;;;4.20;;
2119;SDS011;1066;52.540;13.420;2024-03-25T09:02:21;5.40;;;3.73;;
2119;SDS011;1066;52.540;13.420;2024-03-25T09:04:46;5.80;;;3.93;;
2119;SDS011;1066;52.540;13.420;2024-03-25T09:07:13;5.13;;;3.37;;
2119;SDS011;1066;52.540;13.420;2024-03-25T09:09:39;5.93;;;4.27;;
2119;SDS011;1066;52.540;13.420;2024-03-25T09:12:22;5.20;;;3.73;;
2119;SDS011;1066;52.540;13.420;2024-03-25T09:14:48;4.00;;;3.47;;
2119;SDS011;1066;52.540;13.420;2024-03-25T09:17:13;3.60;;;3.27;;
2119;SDS011;1066;52.540;13.420;2024-03-25T09:19:39;5.17;;;3.03;;
2119;SDS011;1066;52.540;13.420;2024-03-25T09:22:07;5.23;;;4.00;;
2119;SDS011;1066;52.540;13.420;2024-03-25T09:24:32;5.10;;;3.60;;
2119;SDS011;1066;52.540;13.420;2024-03-25T09:26:58;6.53;;;5.03;;
2119;SDS011;1066;52.540;13.420;2024-03-25T09:29:23;5.97;;;3.80;;
2119;SDS011;1066;52.540;13.420;2024-03-25T09:31:48;4.63;;;3.83;;
2119;SDS011;1066;52.540;13.420;2024-03-25T09:34:15;5.03;;;3.83;;
2119;SDS011;1066;52.540;13.420;2024-03-25T09:36:40;4.67;;;3.57;;
2119;SDS011;1066;52.540;13.420;2024-03-25T09:39:06;6.23;;;3.87;;
2119;SDS011;1066;52.540;13.420;2024-03-25T09:41:34;5.50;;;3.97;;
2119;SDS011;1066;52.540;13.420;2024-03-25T09:44:01;5.40;;;3.90;;
2119;SDS011;1066;52.540;13.420;2024-03-25T09:46:29;7.77;;;4.13;;
2119;SDS011;1066;52.540;13.420;2024-03-25T09:48:57;4.90;;;3.13;;
2119;SDS011;1066;52.540;13.420;2024-03-25T09:51:22;4.20;;;3.50;;
2119;SDS011;1066;52.540;13.420;2024-03-25T09:53:47;6.00;;;3.30;;
2119;SDS011;1066;52.540;13.420;2024-03-25T09:56:13;4.67;;;4.10;;
2119;SDS011;1066;52.540;13.420;2024-03-25T09:58:40;8.53;;;4.00;;
2119;SDS011;1066;52.540;13.420;2024-03-25T10:01:05;9.10;;;3.90;;
2119;SDS011;1066;52.540;13.420;2024-03-25T10:03:31;5.17;;;3.47;;
2119;SDS011;1066;52.540;13.420;2024-03-25T10:05:56;4.40;;;3.80;;
2119;SDS011;1066;52.540;13.420;2024-03-25T10:08:22;4.93;;;3.70;;
2119;SDS011;1066;52.540;13.420;2024-03-25T10:10:47;4.30;;;3.43;;
2119;SDS011;1066;52.540;13.420;2024-03-25T10:13:12;4.53;;;3.90;;
2119;SDS011;1066;52.540;13.420;2024-03-25T10:15:38;4.37;;;3.37;;
2119;SDS011;1066;52.540;13.420;2024-03-25T10:18:03;4.30;;;3.43;;
2119;SDS011;1066;52.540;13.420;2024-03-25T10:20:28;5.50;;;3.23;;
2119;SDS011;1066;52.540;13.420;2024-03-25T10:22:54;4.17;;;3.30;;
2119;SDS011;1066;52.540;13.420;2024-03-25T10:25:25;4.40;;;3.90;;
2119;SDS011;1066;52.540;13.420;2024-03-25T10:27:58;3.93;;;3.60;;
2119;SDS011;1066;52.540;13.420;2024-03-25T10:30:30;7.00;;;4.60;;
2119;SDS011;1066;52.540;13.420;2024-03-25T10:33:02;7.30;;;3.77;;
2119;SDS011;1066;52.540;13.420;2024-03-25T10:35:32;6.83;;;3.07;;
2119;SDS011;1066;52.540;13.420;2024-03-25T10:37:59;4.80;;;3.07;;
2119;SDS011;1066;52.540;13.420;2024-03-25T10:40:38;4.53;;;3.23;;
2119;SDS011;1066;52.540;13.420;2024-03-25T10:50:45;4.70;;;2.80;;
2119;SDS011;1066;52.540;13.420;2024-03-25T10:53:11;3.63;;;2.97;;
2119;SDS011;1066;52.540;13.420;2024-03-25T10:55:37;4.23;;;3.20;;
2119;SDS011;1066;52.540;13.420;2024-03-25T10:58:05;7.53;;;5.83;;
2119;SDS011;1066;52.540;13.420;2024-03-25T11:00:32;2.93;;;2.20;;
2119;SDS011;1066;52.540;13.420;2024-03-25T11:03:00;2.77;;;2.30;;
2119;SDS011;1066;52.540;13.420;2024-03-25T11:05:26;3.20;;;2.50;;
2119;SDS011;1066;52.540;13.420;2024-03-25T11:07:51;2.90;;;2.50;;
2119;SDS011;1066;52.540;13.420;2024-03-25T11:10:17;3.10;;;2.30;;
2119;SDS011;1066;52.540;13.420;2024-03-25T11:12:42;3.87;;;3.10;;
2119;SDS011;1066;52.540;13.420;2024-03-25T11:15:08;2.27;;;1.93;;
2119;SDS011;1066;52.540;13.420;2024-03-25T11:17:34;3.27;;;2.50;;
2119;SDS011;1066;52.540;13.420;2024-03-25T11:20:09;5.50;;;3.00;;
2119;SDS011;1066;52.540;13.420;2024-03-25T11:22:35;3.10;;;2.80;;
2119;SDS011;1066;52.540;13.420;2024-03-25T11:25:07;2.50;;;1.87;;
2119;SDS011;1066;52.540;13.420;2024-03-25T11:27:36;6.07;;;2.40;;
2119;SDS011;1066;52.540;13.420;2024-03-25T11:30:02;2.47;;;2.17;;
2119;SDS011;1066;52.540;13.420;2024-03-25T11:32:29;4.30;;;2.30;;
2119;SDS011;1066;52.540;13.420;2024-03-25T11:34:55;2.17;;;2.03;;
2119;SDS011;1066;52.540;13.420;2024-03-25T11:37:21;2.07;;;1.90;;
2119;SDS011;1066;52.540;13.420;2024-03-25T11:39:46;3.73;;;2.20;;
2119;SDS011;1066;52.540;13.420;2024-03-25T11:42:12;3.30;;;2.10;;
2119;SDS011;1066;52.540;13.420;2024-03-25T11:44:38;2.90;;;2.13;;
2119;SDS011;1066;52.540;13.420;2024-03-25T11:47:05;5.23;;;2.33;;
2119;SDS011;1066;52.540;13.420;2024-03-25T11:49:36;2.50;;;2.30;;
2119;SDS011;1066;52.540;13.420;2024-03-25T11:52:03;2.70;;;2.40;;
2119;SDS011;1066;52.540;13.420;2024-03-25T11:54:31;3.27;;;2.23;;
2119;SDS011;1066;52.540;13.420;2024-03-25T11:56:56;2.30;;;2.10;;
2119;SDS011;1066;52.540;13.420;2024-03-25T11:59:22;2.33;;;2.13;;
2119;SDS011;1066;52.540;13.420;2024-03-25T12:01:47;4.40;;;2.30;;
2119;SDS011;1066;52.540;13.420;2024-03-25T12:04:16;3.70;;;2.37;;
2119;SDS011;1066;52.540;13.420;2024-03-25T12:06:43;2.33;;;2.00;;
2119;SDS011;1066;52.540;13.420;2024-03-25T12:09:09;4.87;;;2.37;;
2119;SDS011;1066;52.540;13.420;2024-03-25T12:11:54;2.80;;;2.30;;
2119;SDS011;1066;52.540;13.420;2024-03-25T12:14:21;4.03;;;2.87;;
2119;SDS011;1066;52.540;13.420;2024-03-25T12:16:47;4.57;;;2.50;;
2119;SDS011;1066;52.540;13.420;2024-03-25T12:19:15;3.47;;;2.00;;
2119;SDS011;1066;52.540;13.420;2024-03-25T12:21:40;2.17;;;1.97;;
2119;SDS011;1066;52.540;13.420;2024-03-25T12:24:06;3.47;;;1.93;;
2119;SDS011;1066;52.540;13.420;2024-03-25T12:26:34;1.93;;;1.80;;
2119;SDS011;1066;52.540;13.420;2024-03-25T12:28:59;2.43;;;1.80;;
2119;SDS011;1066;52.540;13.420;2024-03-25T12:31:27;1.90;;;1.60;;
2119;SDS011;1066;52.540;13.420;2024-03-25T12:33:52;5.73;;;1.60;;
2119;SDS011;1066;52.540;13.420;2024-03-25T12:36:21;2.30;;;1.40;;
2119;SDS011;1066;52.540;13.420;2024-03-25T12:38:53;3.17;;;1.70;;
2119;SDS011;1066;52.540;13.420;2024-03-25T12:41:21;2.60;;;1.67;;
2119;SDS011;1066;52.540;13.420;2024-03-25T12:43:48;2.70;;;1.60;;
2119;SDS011;1066;52.540;13.420;2024-03-25T12:46:15;3.13;;;2.00;;
2119;SDS011;1066;52.540;13.420;2024-03-25T12:48:40;2.10;;;1.60;;
2119;SDS011;1066;52.540;13.420;2024-03-25T12:51:06;2.47;;;1.60;;
2119;SDS011;1066;52.540;13.420;2024-03-25T12:53:36;2.07;;;1.60;;
2119;SDS011;1066;52.540;13.420;2024-03-25T12:56:01;2.73;;;1.90;;
2119;SDS011;1066;52.540;13.420;2024-03-25T12:58:27;2.10;;;1.67;;
2119;SDS011;1066;52.540;13.420;2024-03-25T13:00:53;2.00;;;1.67;;
2119;SDS011;1066;52.540;13.420;2024-03-25T13:03:18;4.00;;;2.40;;
2119;SDS011;1066;52.540;13.420;2024-03-25T13:05:43;2.00;;;1.80;;
2119;SDS011;1066;52.540;13.420;2024-03-25T13:08:09;2.53;;;1.80;;
2119;SDS011;1066;52.540;13.420;2024-03-25T13:10:35;2.37;;;2.00;;
2119;SDS011;1066;52.540;13.420;2024-03-25T13:13:01;3.43;;;1.87;;
2119;SDS011;1066;52.540;13.420;2024-03-25T13:15:26;3.60;;;2.10;;
2119;SDS011;1066;52.540;13.420;2024-03-25T13:17:53;2.53;;;2.00;;
2119;SDS011;1066;52.540;13.420;2024-03-25T13:20:18;3.67;;;2.60;;
2119;SDS011;1066;52.540;13.420;2024-03-25T13:22:44;2.80;;;2.43;;
2119;SDS011;1066;52.540;13.420;2024-03-25T13:25:10;1.90;;;1.60;;
2119;SDS011;1066;52.540;13.420;2024-03-25T13:27:36;4.50;;;2.60;;
2119;SDS011;1066;52.540;13.420;2024-03-25T13:30:01;3.40;;;1.90;;
2119;SDS011;1066;52.540;13.420;2024-03-25T13:32:26;2.17;;;1.87;;
2119;SDS011;1066;52.540;13.420;2024-03-25T13:34:54;2.30;;;1.47;;
2119;SDS011;1066;52.540;13.420;2024-03-25T13:37:20;7.87;;;2.70;;
2119;SDS011;1066;52.540;13.420;2024-03-25T13:39:45;3.20;;;1.87;;
2119;SDS011;1066;52.540;13.420;2024-03-25T13:42:11;5.57;;;1.80;;
2119;SDS011;1066;52.540;13.420;2024-03-25T13:44:36;4.17;;;1.73;;
2119;SDS011;1066;52.540;13.420;2024-03-25T13:47:01;3.40;;;2.20;;
2119;SDS011;1066;52.540;13.420;2024-03-25T13:49:27;4.40;;;2.33;;
2119;SDS011;1066;52.540;13.420;2024-03-25T13:51:57;2.50;;;1.80;;
2119;SDS011;1066;52.540;13.420;2024-03-25T13:54:28;1.93;;;1.70;;
2119;SDS011;1066;52.540;13.420;2024-03-25T13:56:55;3.73;;;1.80;;
2119;SDS011;1066;52.540;13.420;2024-03-25T13:59:20;1.63;;;1.53;;
2119;SDS011;1066;52.540;13.420;2024-03-25T14:01:46;1.97;;;1.73;;
2119;SDS011;1066;52.540;13.420;2024-03-25T14:04:11;1.80;;;1.70;;
2119;SDS011;1066;52.540;13.420;2024-03-25T14:06:36;1.63;;;1.53;;
2119;SDS011;1066;52.540;13.420;2024-03-25T14:09:02;2.27;;;1.60;;
2119;SDS011;1066;52.540;13.420;2024-03-25T14:11:31;1.57;;;1.47;;
2119;SDS011;1066;52.540;13.420;2024-03-25T14:13:56;2.83;;;1.60;;
2119;SDS011;1066;52.540;13.420;2024-03-25T14:16:22;2.27;;;1.40;;
2119;SDS011;1066;52.540;13.420;2024-03-25T14:18:47;2.93;;;2.00;;
2119;SDS011;1066;52.540;13.420;2024-03-25T14:21:12;4.60;;;1.97;;
2119;SDS011;1066;52.540;13.420;2024-03-25T14:23:38;1.67;;;1.40;;
2119;SDS011;1066;52.540;13.420;2024-03-25T14:26:03;2.30;;;1.70;;
2119;SDS011;1066;52.540;13.420;2024-03-25T14:28:28;4.67;;;2.13;;
2119;SDS011;1066;52.540;13.420;2024-03-25T14:30:54;2.80;;;1.43;;
2119;SDS011;1066;52.540;13.420;2024-03-25T14:33:19;2.47;;;1.90;;
2119;SDS011;1066;52.540;13.420;2024-03-25T14:35:45;3.03;;;1.60;;
2119;SDS011;1066;52.540;13.420;2024-03-25T14:38:10;4.20;;;1.97;;
2119;SDS011;1066;52.540;13.420;2024-03-25T14:40:41;3.07;;;1.67;;
2119;SDS011;1066;52.540;13.420;2024-03-25T14:43:06;1.27;;;1.17;;
2119;SDS011;1066;52.540;13.420;2024-03-25T14:45:32;1.50;;;1.40;;
2119;SDS011;1066;52.540;13.420;2024-03-25T14:47:57;2.90;;;2.20;;
2119;SDS011;1066;52.540;13.420;2024-03-25T14:50:22;2.60;;;2.00;;
2119;SDS011;1066;52.540;13.420;2024-03-25T14:52:49;4.53;;;1.67;;
2119;SDS011;1066;52.540;13.420;2024-03-25T14:55:14;2.63;;;1.80;;
2119;SDS011;1066;52.540;13.420;2024-03-25T14:57:42;2.77;;;2.13;;
2119;SDS011;1066;52.540;13.420;2024-03-25T15:00:08;3.87;;;2.50;;
2119;SDS011;1066;52.540;13.420;2024-03-25T15:02:33;3.67;;;2.30;;
2119;SDS011;1066;52.540;13.420;2024-03-25T15:05:01;4.50;;;1.93;;